sensor_id;sensor_type;location;lat;lon;timestamp;temperature;humidity
37432;DHT22;23292;51.300;6.252;2024-02-15T00:00:54;12.30;99.90
37432;DHT22;23292;51.300;6.252;2024-02-15T00:03:21;12.30;99.90
37432;DHT22;23292;51.300;6.252;2024-02-15T00:06:05;12.30;99.90
37432;DHT22;23292;51.300;6.252;2024-02-15T00:08:32;12.30;99.90
37432;DHT22;23292;51.300;6.252;2024-02-15T00:11:01;12.30;99.90
37432;DHT22;23292;51.300;6.252;2024-02-15T00:13:29;12.30;99.90
37432;DHT22;23292;51.300;6.252;2024-02-15T00:15:57;12.30;99.90
37432;DHT22;23292;51.300;6.252;2024-02-15T00:18:25;12.30;99.90
37432;DHT22;23292;51.300;6.252;2024-02-15T00:20:52;12.30;99.90
37432;DHT22;23292;51.300;6.252;2024-02-15T00:23:19;12.40;99.90
37432;DHT22;23292;51.300;6.252;2024-02-15T00:25:46;12.20;99.90
37432;DHT22;23292;51.300;6.252;2024-02-15T00:28:12;12.20;99.90
37432;DHT22;23292;51.300;6.252;2024-02-15T00:30:40;12.40;99.90
37432;DHT22;23292;51.300;6.252;2024-02-15T00:33:07;12.20;99.90
37432;DHT22;23292;51.300;6.252;2024-02-15T00:35:35;12.20;99.90
37432;DHT22;23292;51.300;6.252;2024-02-15T00:38:02;12.20;99.90
37432;DHT22;23292;51.300;6.252;2024-02-15T00:40:30;12.20;99.90
37432;DHT22;23292;51.300;6.252;2024-02-15T00:42:57;12.20;99.90
37432;DHT22;23292;51.300;6.252;2024-02-15T00:45:24;12.20;99.90
37432;DHT22;23292;51.300;6.252;2024-02-15T00:47:51;12.20;99.90
37432;DHT22;23292;51.300;6.252;2024-02-15T00:50:18;12.20;99.90
37432;DHT22;23292;51.300;6.252;2024-02-15T00:52:45;12.20;99.90
37432;DHT22;23292;51.300;6.252;2024-02-15T00:55:12;12.20;99.90
37432;DHT22;23292;51.300;6.252;2024-02-15T00:57:39;12.20;99.90
37432;DHT22;23292;51.300;6.252;2024-02-15T01:00:06;12.20;99.90
37432;DHT22;23292;51.300;6.252;2024-02-15T01:02:36;12.20;99.90
37432;DHT22;23292;51.300;6.252;2024-02-15T01:05:03;12.30;99.90
37432;DHT22;23292;51.300;6.252;2024-02-15T01:07:30;12.30;99.90
37432;DHT22;23292;51.300;6.252;2024-02-15T01:09:57;12.20;99.90
37432;DHT22;23292;51.300;6.252;2024-02-15T01:12:24;12.30;99.90
37432;DHT22;23292;51.300;6.252;2024-02-15T01:14:51;12.30;99.90
37432;DHT22;23292;51.300;6.252;2024-02-15T01:17:18;12.30;99.90
37432;DHT22;23292;51.300;6.252;2024-02-15T01:19:45;12.30;99.90
37432;DHT22;23292;51.300;6.252;2024-02-15T01:22:12;12.20;99.90
37432;DHT22;23292;51.300;6.252;2024-02-15T01:24:39;12.10;99.90
37432;DHT22;23292;51.300;6.252;2024-02-15T01:27:06;12.20;99.90
37432;DHT22;23292;51.300;6.252;2024-02-15T01:29:35;12.20;99.90
37432;DHT22;23292;51.300;6.252;2024-02-15T01:32:02;12.20;99.90
37432;DHT22;23292;51.300;6.252;2024-02-15T01:34:29;12.20;99.90
37432;DHT22;23292;51.300;6.252;2024-02-15T01:36:56;12.20;99.90
37432;DHT22;23292;51.300;6.252;2024-02-15T01:39:23;12.20;99.90
37432;DHT22;23292;51.300;6.252;2024-02-15T01:41:50;12.30;99.90
37432;DHT22;23292;51.300;6.252;2024-02-15T01:44:18;12.20;99.90
37432;DHT22;23292;51.300;6.252;2024-02-15T01:46:48;12.20;99.90
37432;DHT22;23292;51.300;6.252;2024-02-15T01:49:33;12.20;99.90
37432;DHT22;23292;51.300;6.252;2024-02-15T01:52:00;12.20;99.90
37432;DHT22;23292;51.300;6.252;2024-02-15T01:54:29;12.20;99.90
37432;DHT22;23292;51.300;6.252;2024-02-15T01:56:56;12.30;99.90
37432;DHT22;23292;51.300;6.252;2024-02-15T01:59:25;12.30;99.90
37432;DHT22;23292;51.300;6.252;2024-02-15T02:01:52;12.30;99.90
37432;DHT22;23292;51.300;6.252;2024-02-15T02:04:19;12.30;99.90
37432;DHT22;23292;51.300;6.252;2024-02-15T02:06:46;12.30;99.90
37432;DHT22;23292;51.300;6.252;2024-02-15T02:09:13;12.20;99.90
37432;DHT22;23292;51.300;6.252;2024-02-15T02:11:47;12.20;99.90
37432;DHT22;23292;51.300;6.252;2024-02-15T02:14:15;12.10;99.90
37432;DHT22;23292;51.300;6.252;2024-02-15T02:16:42;12.10;99.90
37432;DHT22;23292;51.300;6.252;2024-02-15T02:19:09;12.10;99.90
37432;DHT22;23292;51.300;6.252;2024-02-15T02:21:36;12.00;99.90
37432;DHT22;23292;51.300;6.252;2024-02-15T02:24:14;11.90;99.90
37432;DHT22;23292;51.300;6.252;2024-02-15T02:26:41;12.00;99.90
37432;DHT22;23292;51.300;6.252;2024-02-15T02:29:08;11.90;99.90
37432;DHT22;23292;51.300;6.252;2024-02-15T02:31:35;11.90;99.90
37432;DHT22;23292;51.300;6.252;2024-02-15T02:34:02;11.90;99.90
37432;DHT22;23292;51.300;6.252;2024-02-15T02:36:30;11.90;99.90
37432;DHT22;23292;51.300;6.252;2024-02-15T02:38:57;12.00;99.90
37432;DHT22;23292;51.300;6.252;2024-02-15T02:41:28;12.10;99.90
37432;DHT22;23292;51.300;6.252;2024-02-15T02:43:58;12.10;99.90
37432;DHT22;23292;51.300;6.252;2024-02-15T02:46:25;12.10;99.90
37432;DHT22;23292;51.300;6.252;2024-02-15T02:48:52;12.10;99.90
37432;DHT22;23292;51.300;6.252;2024-02-15T02:51:19;12.10;99.90
37432;DHT22;23292;51.300;6.252;2024-02-15T02:53:46;12.10;99.90
37432;DHT22;23292;51.300;6.252;2024-02-15T02:56:14;12.10;99.90
37432;DHT22;23292;51.300;6.252;2024-02-15T02:58:41;12.00;99.90
37432;DHT22;23292;51.300;6.252;2024-02-15T03:01:10;12.00;99.90
37432;DHT22;23292;51.300;6.252;2024-02-15T03:03:37;12.10;99.90
37432;DHT22;23292;51.300;6.252;2024-02-15T03:06:07;12.00;99.90
37432;DHT22;23292;51.300;6.252;2024-02-15T03:08:34;11.90;99.90
37432;DHT22;23292;51.300;6.252;2024-02-15T03:11:01;11.90;99.90
37432;DHT22;23292;51.300;6.252;2024-02-15T03:13:29;11.80;99.90
37432;DHT22;23292;51.300;6.252;2024-02-15T03:15:56;11.80;99.90
37432;DHT22;23292;51.300;6.252;2024-02-15T03:18:22;11.70;99.90
37432;DHT22;23292;51.300;6.252;2024-02-15T03:20:51;11.70;99.90
37432;DHT22;23292;51.300;6.252;2024-02-15T03:23:18;11.60;99.90
37432;DHT22;23292;51.300;6.252;2024-02-15T03:25:45;11.50;99.90
37432;DHT22;23292;51.300;6.252;2024-02-15T03:28:12;11.50;99.90
37432;DHT22;23292;51.300;6.252;2024-02-15T03:30:40;11.50;99.90
37432;DHT22;23292;51.300;6.252;2024-02-15T03:33:07;11.60;99.90
37432;DHT22;23292;51.300;6.252;2024-02-15T03:35:34;11.60;99.90
37432;DHT22;23292;51.300;6.252;2024-02-15T03:38:02;11.60;99.90
37432;DHT22;23292;51.300;6.252;2024-02-15T03:40:29;11.70;99.90
37432;DHT22;23292;51.300;6.252;2024-02-15T03:42:57;11.70;99.90
37432;DHT22;23292;51.300;6.252;2024-02-15T03:45:24;11.70;99.90
37432;DHT22;23292;51.300;6.252;2024-02-15T03:47:53;11.80;99.90
37432;DHT22;23292;51.300;6.252;2024-02-15T03:50:21;11.80;99.90
37432;DHT22;23292;51.300;6.252;2024-02-15T03:52:49;11.80;99.90
37432;DHT22;23292;51.300;6.252;2024-02-15T03:55:17;11.90;99.90
37432;DHT22;23292;51.300;6.252;2024-02-15T03:57:45;11.90;99.90
37432;DHT22;23292;51.300;6.252;2024-02-15T04:00:13;11.90;99.90
37432;DHT22;23292;51.300;6.252;2024-02-15T04:02:49;11.90;99.90
37432;DHT22;23292;51.300;6.252;2024-02-15T04:05:16;12.00;99.90
37432;DHT22;23292;51.300;6.252;2024-02-15T04:07:45;12.00;99.90
37432;DHT22;23292;51.300;6.252;2024-02-15T04:10:13;12.00;99.90
37432;DHT22;23292;51.300;6.252;2024-02-15T04:12:40;12.00;99.90
37432;DHT22;23292;51.300;6.252;2024-02-15T04:15:09;12.10;99.90
37432;DHT22;23292;51.300;6.252;2024-02-15T04:17:42;12.10;99.90
37432;DHT22;23292;51.300;6.252;2024-02-15T04:20:11;12.20;99.90
37432;DHT22;23292;51.300;6.252;2024-02-15T04:22:39;12.30;99.90
37432;DHT22;23292;51.300;6.252;2024-02-15T04:25:09;12.20;99.90
37432;DHT22;23292;51.300;6.252;2024-02-15T04:27:37;12.20;99.90
37432;DHT22;23292;51.300;6.252;2024-02-15T04:30:05;12.10;99.90
37432;DHT22;23292;51.300;6.252;2024-02-15T04:32:34;12.10;99.90
37432;DHT22;23292;51.300;6.252;2024-02-15T04:35:02;12.10;99.90
37432;DHT22;23292;51.300;6.252;2024-02-15T04:37:30;12.10;99.90
37432;DHT22;23292;51.300;6.252;2024-02-15T04:39:59;12.10;99.90
37432;DHT22;23292;51.300;6.252;2024-02-15T04:42:35;12.10;99.90
37432;DHT22;23292;51.300;6.252;2024-02-15T04:45:03;12.20;99.90
37432;DHT22;23292;51.300;6.252;2024-02-15T04:47:36;12.20;99.90
37432;DHT22;23292;51.300;6.252;2024-02-15T04:50:03;12.20;99.90
37432;DHT22;23292;51.300;6.252;2024-02-15T04:52:33;12.30;99.90
37432;DHT22;23292;51.300;6.252;2024-02-15T04:55:00;12.20;99.90
37432;DHT22;23292;51.300;6.252;2024-02-15T04:57:27;12.20;99.90
37432;DHT22;23292;51.300;6.252;2024-02-15T04:59:56;12.10;99.90
37432;DHT22;23292;51.300;6.252;2024-02-15T05:02:26;12.10;99.90
37432;DHT22;23292;51.300;6.252;2024-02-15T05:04:53;12.10;99.90
37432;DHT22;23292;51.300;6.252;2024-02-15T05:07:23;12.10;99.90
37432;DHT22;23292;51.300;6.252;2024-02-15T05:09:50;12.10;99.90
37432;DHT22;23292;51.300;6.252;2024-02-15T05:12:23;12.10;99.90
37432;DHT22;23292;51.300;6.252;2024-02-15T05:14:52;12.00;99.90
37432;DHT22;23292;51.300;6.252;2024-02-15T05:17:20;12.00;99.90
37432;DHT22;23292;51.300;6.252;2024-02-15T05:19:49;12.00;99.90
37432;DHT22;23292;51.300;6.252;2024-02-15T05:22:16;11.90;99.90
37432;DHT22;23292;51.300;6.252;2024-02-15T05:24:45;11.90;99.90
37432;DHT22;23292;51.300;6.252;2024-02-15T05:27:12;12.00;99.90
37432;DHT22;23292;51.300;6.252;2024-02-15T05:29:39;11.90;99.90
37432;DHT22;23292;51.300;6.252;2024-02-15T05:32:08;12.00;99.90
37432;DHT22;23292;51.300;6.252;2024-02-15T05:34:36;11.90;99.90
37432;DHT22;23292;51.300;6.252;2024-02-15T05:37:06;11.90;99.90
37432;DHT22;23292;51.300;6.252;2024-02-15T05:39:33;12.00;99.90
37432;DHT22;23292;51.300;6.252;2024-02-15T05:42:00;11.90;99.90
37432;DHT22;23292;51.300;6.252;2024-02-15T05:44:27;11.90;99.90
37432;DHT22;23292;51.300;6.252;2024-02-15T05:46:54;12.00;99.90
37432;DHT22;23292;51.300;6.252;2024-02-15T05:49:21;12.00;99.90
37432;DHT22;23292;51.300;6.252;2024-02-15T05:51:50;11.90;99.90
37432;DHT22;23292;51.300;6.252;2024-02-15T05:54:17;11.90;99.90
37432;DHT22;23292;51.300;6.252;2024-02-15T05:56:45;11.90;99.90
37432;DHT22;23292;51.300;6.252;2024-02-15T05:59:18;11.90;99.90
37432;DHT22;23292;51.300;6.252;2024-02-15T06:01:47;11.80;99.90
37432;DHT22;23292;51.300;6.252;2024-02-15T06:04:15;11.80;99.90
37432;DHT22;23292;51.300;6.252;2024-02-15T06:06:43;11.80;99.90
37432;DHT22;23292;51.300;6.252;2024-02-15T06:09:10;11.80;99.90
37432;DHT22;23292;51.300;6.252;2024-02-15T06:11:37;11.70;99.90
37432;DHT22;23292;51.300;6.252;2024-02-15T06:14:05;11.70;99.90
37432;DHT22;23292;51.300;6.252;2024-02-15T06:16:33;11.70;99.90
37432;DHT22;23292;51.300;6.252;2024-02-15T06:19:00;11.70;99.90
37432;DHT22;23292;51.300;6.252;2024-02-15T06:21:27;11.70;99.90
37432;DHT22;23292;51.300;6.252;2024-02-15T06:23:55;11.70;99.90
37432;DHT22;23292;51.300;6.252;2024-02-15T06:26:22;11.70;99.90
37432;DHT22;23292;51.300;6.252;2024-02-15T06:28:49;11.70;99.90
37432;DHT22;23292;51.300;6.252;2024-02-15T06:31:34;11.70;99.90
37432;DHT22;23292;51.300;6.252;2024-02-15T06:34:20;11.70;99.90
37432;DHT22;23292;51.300;6.252;2024-02-15T06:37:06;11.60;99.90
37432;DHT22;23292;51.300;6.252;2024-02-15T06:39:51;11.70;99.90
37432;DHT22;23292;51.300;6.252;2024-02-15T06:42:19;11.70;99.90
37432;DHT22;23292;51.300;6.252;2024-02-15T06:44:47;11.70;99.90
37432;DHT22;23292;51.300;6.252;2024-02-15T06:47:15;11.70;99.90
37432;DHT22;23292;51.300;6.252;2024-02-15T06:49:46;11.70;99.90
37432;DHT22;23292;51.300;6.252;2024-02-15T06:52:13;11.70;99.90
37432;DHT22;23292;51.300;6.252;2024-02-15T06:54:41;11.70;99.90
37432;DHT22;23292;51.300;6.252;2024-02-15T06:57:08;11.70;99.90
37432;DHT22;23292;51.300;6.252;2024-02-15T06:59:35;11.60;99.90
37432;DHT22;23292;51.300;6.252;2024-02-15T07:02:04;11.60;99.90
37432;DHT22;23292;51.300;6.252;2024-02-15T07:04:35;11.60;99.90
37432;DHT22;23292;51.300;6.252;2024-02-15T07:07:03;11.60;99.90
37432;DHT22;23292;51.300;6.252;2024-02-15T07:09:30;11.60;99.90
37432;DHT22;23292;51.300;6.252;2024-02-15T07:11:57;11.60;99.90
37432;DHT22;23292;51.300;6.252;2024-02-15T07:14:25;11.60;99.90
37432;DHT22;23292;51.300;6.252;2024-02-15T07:16:54;11.60;99.90
37432;DHT22;23292;51.300;6.252;2024-02-15T07:19:24;11.60;99.90
37432;DHT22;23292;51.300;6.252;2024-02-15T07:21:52;11.60;99.90
37432;DHT22;23292;51.300;6.252;2024-02-15T07:24:18;11.70;99.90
37432;DHT22;23292;51.300;6.252;2024-02-15T07:26:46;11.70;99.90
37432;DHT22;23292;51.300;6.252;2024-02-15T07:29:12;11.70;99.90
37432;DHT22;23292;51.300;6.252;2024-02-15T07:31:41;11.70;99.90
37432;DHT22;23292;51.300;6.252;2024-02-15T07:34:08;11.70;99.90
37432;DHT22;23292;51.300;6.252;2024-02-15T07:36:36;11.70;99.90
37432;DHT22;23292;51.300;6.252;2024-02-15T07:39:03;11.70;99.90
37432;DHT22;23292;51.300;6.252;2024-02-15T07:41:30;11.70;99.90
37432;DHT22;23292;51.300;6.252;2024-02-15T07:44:00;11.80;99.90
37432;DHT22;23292;51.300;6.252;2024-02-15T07:46:28;11.70;99.90
37432;DHT22;23292;51.300;6.252;2024-02-15T07:48:55;11.70;99.90
37432;DHT22;23292;51.300;6.252;2024-02-15T07:51:22;11.70;99.90
37432;DHT22;23292;51.300;6.252;2024-02-15T07:53:49;11.70;99.90
37432;DHT22;23292;51.300;6.252;2024-02-15T07:56:17;11.80;99.90
37432;DHT22;23292;51.300;6.252;2024-02-15T07:58:46;11.80;99.90
37432;DHT22;23292;51.300;6.252;2024-02-15T08:01:19;11.80;99.90
37432;DHT22;23292;51.300;6.252;2024-02-15T08:03:52;11.80;99.90
37432;DHT22;23292;51.300;6.252;2024-02-15T08:06:22;11.90;99.90
37432;DHT22;23292;51.300;6.252;2024-02-15T08:08:52;11.90;99.90
37432;DHT22;23292;51.300;6.252;2024-02-15T08:11:20;12.00;99.90
37432;DHT22;23292;51.300;6.252;2024-02-15T08:13:47;11.90;99.90
37432;DHT22;23292;51.300;6.252;2024-02-15T08:16:19;12.00;99.90
37432;DHT22;23292;51.300;6.252;2024-02-15T08:18:47;12.00;99.90
37432;DHT22;23292;51.300;6.252;2024-02-15T08:21:15;12.10;99.90
37432;DHT22;23292;51.300;6.252;2024-02-15T08:23:42;12.00;99.90
37432;DHT22;23292;51.300;6.252;2024-02-15T08:26:09;12.00;99.90
37432;DHT22;23292;51.300;6.252;2024-02-15T08:28:38;12.00;99.90
37432;DHT22;23292;51.300;6.252;2024-02-15T08:31:04;12.20;99.90
37432;DHT22;23292;51.300;6.252;2024-02-15T08:33:31;12.20;99.90
37432;DHT22;23292;51.300;6.252;2024-02-15T08:35:58;12.20;99.90
37432;DHT22;23292;51.300;6.252;2024-02-15T08:38:25;12.30;99.90
37432;DHT22;23292;51.300;6.252;2024-02-15T08:40:52;12.20;99.90
37432;DHT22;23292;51.300;6.252;2024-02-15T08:43:19;12.20;99.90
37432;DHT22;23292;51.300;6.252;2024-02-15T08:45:45;12.20;99.90
37432;DHT22;23292;51.300;6.252;2024-02-15T08:48:12;12.20;99.90
37432;DHT22;23292;51.300;6.252;2024-02-15T08:50:40;12.20;99.90
37432;DHT22;23292;51.300;6.252;2024-02-15T08:53:08;12.20;99.90
37432;DHT22;23292;51.300;6.252;2024-02-15T08:55:34;12.20;99.90
37432;DHT22;23292;51.300;6.252;2024-02-15T08:58:03;12.20;99.90
37432;DHT22;23292;51.300;6.252;2024-02-15T09:00:31;12.30;99.90
37432;DHT22;23292;51.300;6.252;2024-02-15T09:02:58;12.30;99.90
37432;DHT22;23292;51.300;6.252;2024-02-15T09:05:25;12.30;99.90
37432;DHT22;23292;51.300;6.252;2024-02-15T09:07:53;12.30;99.90
37432;DHT22;23292;51.300;6.252;2024-02-15T09:10:20;12.40;99.90
37432;DHT22;23292;51.300;6.252;2024-02-15T09:12:50;12.50;99.90
37432;DHT22;23292;51.300;6.252;2024-02-15T09:15:17;12.60;99.90
37432;DHT22;23292;51.300;6.252;2024-02-15T09:17:45;12.70;99.90
37432;DHT22;23292;51.300;6.252;2024-02-15T09:20:15;12.80;99.90
37432;DHT22;23292;51.300;6.252;2024-02-15T09:25:16;12.90;99.90
37432;DHT22;23292;51.300;6.252;2024-02-15T09:27:43;13.10;99.90
37432;DHT22;23292;51.300;6.252;2024-02-15T09:30:11;13.10;99.90
37432;DHT22;23292;51.300;6.252;2024-02-15T09:32:39;13.30;99.90
37432;DHT22;23292;51.300;6.252;2024-02-15T09:35:07;13.30;99.90
37432;DHT22;23292;51.300;6.252;2024-02-15T09:37:43;13.40;99.90
37432;DHT22;23292;51.300;6.252;2024-02-15T09:40:11;13.50;99.90
37432;DHT22;23292;51.300;6.252;2024-02-15T09:42:39;13.60;99.90
37432;DHT22;23292;51.300;6.252;2024-02-15T09:45:07;13.50;99.90
37432;DHT22;23292;51.300;6.252;2024-02-15T09:47:38;13.40;99.90
37432;DHT22;23292;51.300;6.252;2024-02-15T09:50:10;13.40;99.90
37432;DHT22;23292;51.300;6.252;2024-02-15T09:55:12;13.50;99.90
37432;DHT22;23292;51.300;6.252;2024-02-15T09:57:49;13.50;99.90
37432;DHT22;23292;51.300;6.252;2024-02-15T10:00:17;13.50;99.90
37432;DHT22;23292;51.300;6.252;2024-02-15T10:02:47;13.60;99.90
37432;DHT22;23292;51.300;6.252;2024-02-15T10:05:14;13.70;99.90
37432;DHT22;23292;51.300;6.252;2024-02-15T10:07:43;13.90;99.90
37432;DHT22;23292;51.300;6.252;2024-02-15T10:10:24;14.00;99.90
37432;DHT22;23292;51.300;6.252;2024-02-15T10:12:53;14.10;99.90
37432;DHT22;23292;51.300;6.252;2024-02-15T10:15:37;14.10;99.90
37432;DHT22;23292;51.300;6.252;2024-02-15T10:18:07;14.10;99.90
37432;DHT22;23292;51.300;6.252;2024-02-15T10:20:41;14.20;99.90
37432;DHT22;23292;51.300;6.252;2024-02-15T10:23:14;14.30;99.90
37432;DHT22;23292;51.300;6.252;2024-02-15T10:25:44;14.30;99.90
37432;DHT22;23292;51.300;6.252;2024-02-15T10:28:11;14.30;99.90
37432;DHT22;23292;51.300;6.252;2024-02-15T10:30:40;14.40;99.90
37432;DHT22;23292;51.300;6.252;2024-02-15T10:33:10;14.50;99.90
37432;DHT22;23292;51.300;6.252;2024-02-15T10:35:44;14.60;99.90
37432;DHT22;23292;51.300;6.252;2024-02-15T10:38:12;14.60;99.90
37432;DHT22;23292;51.300;6.252;2024-02-15T10:40:42;14.70;99.90
37432;DHT22;23292;51.300;6.252;2024-02-15T10:43:10;14.80;99.90
37432;DHT22;23292;51.300;6.252;2024-02-15T10:45:40;15.00;99.90
37432;DHT22;23292;51.300;6.252;2024-02-15T10:48:09;15.10;99.90
37432;DHT22;23292;51.300;6.252;2024-02-15T10:50:36;15.20;99.90
37432;DHT22;23292;51.300;6.252;2024-02-15T10:53:21;15.30;99.90
37432;DHT22;23292;51.300;6.252;2024-02-15T10:56:06;15.40;99.90
37432;DHT22;23292;51.300;6.252;2024-02-15T10:58:46;15.40;99.90
37432;DHT22;23292;51.300;6.252;2024-02-15T11:01:17;15.50;99.90
37432;DHT22;23292;51.300;6.252;2024-02-15T11:03:51;15.40;99.90
37432;DHT22;23292;51.300;6.252;2024-02-15T11:06:24;15.50;99.90
37432;DHT22;23292;51.300;6.252;2024-02-15T11:08:53;15.70;99.90
37432;DHT22;23292;51.300;6.252;2024-02-15T11:11:21;15.80;99.90
37432;DHT22;23292;51.300;6.252;2024-02-15T11:16:53;16.30;99.90
37432;DHT22;23292;51.300;6.252;2024-02-15T11:22:11;16.90;99.90
37432;DHT22;23292;51.300;6.252;2024-02-15T11:24:51;17.00;99.90
37432;DHT22;23292;51.300;6.252;2024-02-15T11:27:29;17.10;99.90
37432;DHT22;23292;51.300;6.252;2024-02-15T11:29:58;17.10;99.90
37432;DHT22;23292;51.300;6.252;2024-02-15T11:32:44;17.10;99.90
37432;DHT22;23292;51.300;6.252;2024-02-15T11:35:32;17.00;99.90
37432;DHT22;23292;51.300;6.252;2024-02-15T11:37:59;17.10;99.90
37432;DHT22;23292;51.300;6.252;2024-02-15T11:46:18;17.60;99.90
37432;DHT22;23292;51.300;6.252;2024-02-15T11:48:48;17.80;99.90
37432;DHT22;23292;51.300;6.252;2024-02-15T11:54:06;18.00;99.90
37432;DHT22;23292;51.300;6.252;2024-02-15T11:56:54;18.10;99.90
37432;DHT22;23292;51.300;6.252;2024-02-15T11:59:41;18.00;99.90
37432;DHT22;23292;51.300;6.252;2024-02-15T12:02:20;18.10;99.90
37432;DHT22;23292;51.300;6.252;2024-02-15T12:05:06;17.90;99.90
37432;DHT22;23292;51.300;6.252;2024-02-15T12:07:52;18.10;99.90
37432;DHT22;23292;51.300;6.252;2024-02-15T12:10:38;18.10;99.90
37432;DHT22;23292;51.300;6.252;2024-02-15T12:13:23;18.10;99.90
37432;DHT22;23292;51.300;6.252;2024-02-15T12:16:08;18.10;99.90
37432;DHT22;23292;51.300;6.252;2024-02-15T12:18:53;18.20;99.90
37432;DHT22;23292;51.300;6.252;2024-02-15T12:21:24;18.40;99.90
37432;DHT22;23292;51.300;6.252;2024-02-15T12:23:52;18.50;99.90
37432;DHT22;23292;51.300;6.252;2024-02-15T12:26:20;18.30;99.90
37432;DHT22;23292;51.300;6.252;2024-02-15T12:28:51;18.30;99.90
37432;DHT22;23292;51.300;6.252;2024-02-15T12:31:21;18.20;99.90
37432;DHT22;23292;51.300;6.252;2024-02-15T12:34:02;18.20;99.90
37432;DHT22;23292;51.300;6.252;2024-02-15T12:36:34;18.00;99.90
37432;DHT22;23292;51.300;6.252;2024-02-15T12:39:04;18.20;99.90
37432;DHT22;23292;51.300;6.252;2024-02-15T12:41:41;18.20;99.90
37432;DHT22;23292;51.300;6.252;2024-02-15T12:44:17;18.10;99.90
37432;DHT22;23292;51.300;6.252;2024-02-15T12:46:47;17.90;99.90
37432;DHT22;23292;51.300;6.252;2024-02-15T12:49:28;17.90;99.90
37432;DHT22;23292;51.300;6.252;2024-02-15T12:55:13;17.80;99.90
37432;DHT22;23292;51.300;6.252;2024-02-15T12:57:41;17.70;99.90
37432;DHT22;23292;51.300;6.252;2024-02-15T13:00:10;17.70;99.90
37432;DHT22;23292;51.300;6.252;2024-02-15T13:02:45;17.60;99.90
37432;DHT22;23292;51.300;6.252;2024-02-15T13:05:16;17.60;99.90
37432;DHT22;23292;51.300;6.252;2024-02-15T13:07:49;17.60;99.90
37432;DHT22;23292;51.300;6.252;2024-02-15T13:10:16;17.70;99.90
37432;DHT22;23292;51.300;6.252;2024-02-15T13:12:46;17.90;99.90
37432;DHT22;23292;51.300;6.252;2024-02-15T13:15:15;18.00;99.90
37432;DHT22;23292;51.300;6.252;2024-02-15T13:17:46;18.20;99.90
37432;DHT22;23292;51.300;6.252;2024-02-15T13:20:15;18.50;99.90
37432;DHT22;23292;51.300;6.252;2024-02-15T13:22:42;18.60;99.90
37432;DHT22;23292;51.300;6.252;2024-02-15T13:25:10;18.50;99.90
37432;DHT22;23292;51.300;6.252;2024-02-15T13:27:37;18.60;99.90
37432;DHT22;23292;51.300;6.252;2024-02-15T13:30:05;18.70;99.90
37432;DHT22;23292;51.300;6.252;2024-02-15T13:32:36;18.80;99.90
37432;DHT22;23292;51.300;6.252;2024-02-15T13:35:05;19.00;99.90
37432;DHT22;23292;51.300;6.252;2024-02-15T13:37:51;19.20;99.90
37432;DHT22;23292;51.300;6.252;2024-02-15T13:40:20;19.30;99.90
37432;DHT22;23292;51.300;6.252;2024-02-15T13:42:51;19.40;99.90
37432;DHT22;23292;51.300;6.252;2024-02-15T13:45:23;19.40;99.90
37432;DHT22;23292;51.300;6.252;2024-02-15T13:47:51;19.60;99.90
37432;DHT22;23292;51.300;6.252;2024-02-15T13:50:23;19.70;99.90
37432;DHT22;23292;51.300;6.252;2024-02-15T13:52:51;19.30;99.90
37432;DHT22;23292;51.300;6.252;2024-02-15T13:55:18;19.00;99.90
37432;DHT22;23292;51.300;6.252;2024-02-15T13:57:46;18.90;99.90
37432;DHT22;23292;51.300;6.252;2024-02-15T14:00:15;18.90;99.90
37432;DHT22;23292;51.300;6.252;2024-02-15T14:02:49;18.60;99.90
37432;DHT22;23292;51.300;6.252;2024-02-15T14:05:18;18.40;99.90
37432;DHT22;23292;51.300;6.252;2024-02-15T14:07:47;18.20;99.90
37432;DHT22;23292;51.300;6.252;2024-02-15T14:10:16;18.00;99.90
37432;DHT22;23292;51.300;6.252;2024-02-15T14:12:47;18.00;99.90
37432;DHT22;23292;51.300;6.252;2024-02-15T14:15:15;17.90;99.90
37432;DHT22;23292;51.300;6.252;2024-02-15T14:17:45;17.70;99.90
37432;DHT22;23292;51.300;6.252;2024-02-15T14:20:12;17.80;99.90
37432;DHT22;23292;51.300;6.252;2024-02-15T14:22:48;17.70;99.90
37432;DHT22;23292;51.300;6.252;2024-02-15T14:25:16;17.60;99.90
37432;DHT22;23292;51.300;6.252;2024-02-15T14:27:43;17.60;99.90
37432;DHT22;23292;51.300;6.252;2024-02-15T14:30:10;17.60;99.90
37432;DHT22;23292;51.300;6.252;2024-02-15T14:32:55;17.70;99.90
37432;DHT22;23292;51.300;6.252;2024-02-15T14:35:36;17.70;99.90
37432;DHT22;23292;51.300;6.252;2024-02-15T14:38:07;17.60;99.90
37432;DHT22;23292;51.300;6.252;2024-02-15T14:40:38;17.60;99.90
37432;DHT22;23292;51.300;6.252;2024-02-15T14:43:09;17.60;99.90
37432;DHT22;23292;51.300;6.252;2024-02-15T14:45:43;17.50;99.90
37432;DHT22;23292;51.300;6.252;2024-02-15T14:48:10;17.30;99.90
37432;DHT22;23292;51.300;6.252;2024-02-15T14:50:41;17.20;99.90
37432;DHT22;23292;51.300;6.252;2024-02-15T14:53:09;17.30;99.90
37432;DHT22;23292;51.300;6.252;2024-02-15T14:55:37;17.10;99.90
37432;DHT22;23292;51.300;6.252;2024-02-15T14:58:10;17.10;99.90
37432;DHT22;23292;51.300;6.252;2024-02-15T15:00:39;17.10;99.90
37432;DHT22;23292;51.300;6.252;2024-02-15T15:03:09;17.00;99.90
37432;DHT22;23292;51.300;6.252;2024-02-15T15:05:36;16.90;99.90
37432;DHT22;23292;51.300;6.252;2024-02-15T15:08:22;16.80;99.90
37432;DHT22;23292;51.300;6.252;2024-02-15T15:11:07;16.80;99.90
37432;DHT22;23292;51.300;6.252;2024-02-15T15:13:53;16.90;99.90
37432;DHT22;23292;51.300;6.252;2024-02-15T15:16:20;16.80;99.90
37432;DHT22;23292;51.300;6.252;2024-02-15T15:18:51;16.80;99.90
37432;DHT22;23292;51.300;6.252;2024-02-15T15:21:21;16.80;99.90
37432;DHT22;23292;51.300;6.252;2024-02-15T15:23:50;16.90;99.90
37432;DHT22;23292;51.300;6.252;2024-02-15T15:26:20;16.80;99.90
37432;DHT22;23292;51.300;6.252;2024-02-15T15:28:48;16.70;99.90
37432;DHT22;23292;51.300;6.252;2024-02-15T15:31:16;16.70;99.90
37432;DHT22;23292;51.300;6.252;2024-02-15T15:33:43;16.70;99.90
37432;DHT22;23292;51.300;6.252;2024-02-15T15:36:11;16.70;99.90
37432;DHT22;23292;51.300;6.252;2024-02-15T15:38:38;16.70;99.90
37432;DHT22;23292;51.300;6.252;2024-02-15T15:41:09;16.70;99.90
37432;DHT22;23292;51.300;6.252;2024-02-15T15:43:36;16.60;99.90
37432;DHT22;23292;51.300;6.252;2024-02-15T15:46:04;16.50;99.90
37432;DHT22;23292;51.300;6.252;2024-02-15T15:48:31;16.60;99.90
37432;DHT22;23292;51.300;6.252;2024-02-15T15:51:00;16.50;99.90
37432;DHT22;23292;51.300;6.252;2024-02-15T15:53:31;16.60;99.90
37432;DHT22;23292;51.300;6.252;2024-02-15T15:55:58;16.70;99.90
37432;DHT22;23292;51.300;6.252;2024-02-15T15:58:27;16.70;99.90
37432;DHT22;23292;51.300;6.252;2024-02-15T16:00:54;16.70;99.90
37432;DHT22;23292;51.300;6.252;2024-02-15T16:03:21;16.70;99.90
37432;DHT22;23292;51.300;6.252;2024-02-15T16:05:50;16.70;99.90
37432;DHT22;23292;51.300;6.252;2024-02-15T16:08:16;16.70;99.90